Time;durP1;ratioP1;P1;durP2;ratioP2;P2;SDS_P1;SDS_P2;PMS_P1;PMS_P2;Temp;Humidity;BMP_temperature;BMP_pressure;BME280_temperature;BME280_humidity;BME280_pressure;Samples;Min_cycle;Max_cycle;Signal;HPM_P1;HPM_P2
2023/01/06 00:00:25;;;;;;;;;;;;;;;5.05;71.50;101666.69;4130082;28;20041;-60
2023/01/06 00:02:27;;;;;;;;;;;;;;;4.99;71.89;101662.66;4113578;28;20017;-63
2023/01/06 00:04:29;;;;;;;;;;;;;;;5.01;72.94;101662.53;4115123;28;20367;-59
2023/01/06 00:06:33;;;;;;;;;;;;;;;5.03;72.82;101672.16;4107403;28;19960;-60
2023/01/06 00:08:35;;;;;;;;;;;;;;;5.05;72.62;101664.88;4113754;28;20443;-60
2023/01/06 00:10:37;;;;;;;;;;;;;;;5.09;72.33;101656.59;4110763;28;19965;-58
2023/01/06 00:12:39;;;;;;;;;;;;;;;5.06;72.21;101663.03;4114070;28;20468;-61
2023/01/06 00:14:41;;;;;;;;;;;;;;;5.03;72.15;101668.63;4115181;28;20017;-62
2023/01/06 00:16:44;;;;;;;;;;;;;;;5.01;72.05;101663.38;4114133;28;20008;-63
2023/01/06 00:18:46;;;;;;;;;;;;;;;5.02;72.32;101664.25;4112398;28;20036;-63
2023/01/06 00:20:48;;;;;;;;;;;;;;;5.05;72.92;101656.00;4115255;28;20021;-62
2023/01/06 00:22:51;;;;;;;;;;;;;;;5.08;73.17;101666.47;4113149;28;20362;-62
2023/01/06 00:24:53;;;;;;;;;;;;;;;5.10;73.10;101661.00;4113949;28;20030;-64
2023/01/06 00:26:55;;;;;;;;;;;;;;;5.09;72.50;101660.13;4114509;28;20016;-62
2023/01/06 00:28:57;;;;;;;;;;;;;;;5.03;72.42;101656.09;4130001;28;20016;-62
2023/01/06 00:31:05;;;;;;;;;;;;;;;5.01;72.60;101658.03;4117249;28;20048;-62
2023/01/06 00:33:07;;;;;;;;;;;;;;;5.00;72.65;101658.16;4112733;28;20482;-62
2023/01/06 00:35:09;;;;;;;;;;;;;;;5.04;72.64;101656.94;4107760;28;20355;-62
2023/01/06 00:37:11;;;;;;;;;;;;;;;5.05;72.58;101643.44;4114351;28;20024;-60
2023/01/06 00:39:16;;;;;;;;;;;;;;;5.07;72.35;101651.34;4115008;28;20612;-61
2023/01/06 00:43:37;;;;;;;;;;;;;;;5.02;72.06;101638.31;4110370;28;20466;-62
2023/01/06 00:45:39;;;;;;;;;;;;;;;4.98;71.86;101639.53;4114869;28;20024;-59
2023/01/06 00:47:41;;;;;;;;;;;;;;;4.90;71.86;101639.28;4113739;28;20017;-62
2023/01/06 00:49:43;;;;;;;;;;;;;;;4.81;72.36;101635.50;4112434;28;20348;-61
2023/01/06 00:51:45;;;;;;;;;;;;;;;4.78;72.66;101637.53;4114203;28;20004;-61
2023/01/06 00:53:47;;;;;;;;;;;;;;;4.76;72.79;101642.16;4114513;28;19922;-61
2023/01/06 00:55:50;;;;;;;;;;;;;;;4.74;72.90;101638.75;4111647;28;20016;-62
2023/01/06 00:57:52;;;;;;;;;;;;;;;4.74;73.19;101646.78;4112249;28;20048;-61
2023/01/06 00:59:54;;;;;;;;;;;;;;;4.75;73.28;101641.31;4129285;28;20012;-60
2023/01/06 01:01:57;;;;;;;;;;;;;;;4.76;72.94;101647.50;4110749;28;20008;-61
2023/01/06 01:03:59;;;;;;;;;;;;;;;4.72;72.50;101648.69;4114402;28;20029;-61
2023/01/06 01:06:01;;;;;;;;;;;;;;;4.68;72.87;101656.13;4109694;28;20016;-60
2023/01/06 01:08:03;;;;;;;;;;;;;;;4.67;72.93;101655.28;4111187;28;20024;-61
2023/01/06 01:10:06;;;;;;;;;;;;;;;4.68;73.45;101648.94;4114524;28;20024;-60
2023/01/06 01:12:09;;;;;;;;;;;;;;;4.72;73.25;101640.66;4113138;28;20020;-61
2023/01/06 01:14:12;;;;;;;;;;;;;;;4.70;73.09;101638.09;4114317;28;20420;-61
2023/01/06 01:16:14;;;;;;;;;;;;;;;4.69;73.36;101642.63;4122925;28;20025;-59
2023/01/06 01:18:18;;;;;;;;;;;;;;;4.71;73.32;101647.84;4111406;28;20029;-60
2023/01/06 01:20:20;;;;;;;;;;;;;;;4.74;73.58;101644.94;4114219;28;20016;-61
2023/01/06 01:22:26;;;;;;;;;;;;;;;4.76;73.54;101639.47;4113966;28;20021;-60
2023/01/06 01:24:27;;;;;;;;;;;;;;;4.76;73.14;101637.66;4106418;28;20020;-61
2023/01/06 01:26:29;;;;;;;;;;;;;;;4.78;72.94;101633.06;4111576;28;20008;-62
2023/01/06 01:28:34;;;;;;;;;;;;;;;4.79;73.07;101640.09;4111423;28;20009;-62
2023/01/06 01:30:36;;;;;;;;;;;;;;;4.79;73.23;101644.59;4112177;28;20013;-61
2023/01/06 01:32:37;;;;;;;;;;;;;;;4.78;73.29;101633.06;4112501;28;20048;-64
2023/01/06 01:34:40;;;;;;;;;;;;;;;4.80;73.58;101636.44;4114257;28;19922;-62
2023/01/06 01:36:42;;;;;;;;;;;;;;;4.81;73.68;101629.25;4127846;28;20024;-62
2023/01/06 01:38:44;;;;;;;;;;;;;;;4.83;73.58;101622.00;4097325;28;19962;-62
2023/01/06 01:40:47;;;;;;;;;;;;;;;4.85;73.29;101623.56;4118061;28;20013;-63
2023/01/06 01:42:49;;;;;;;;;;;;;;;4.86;73.19;101627.13;4103649;28;20020;-63
2023/01/06 01:44:54;;;;;;;;;;;;;;;4.85;73.00;101622.72;4128361;28;20012;-61
2023/01/06 01:46:56;;;;;;;;;;;;;;;4.86;72.86;101632.47;4113087;28;20001;-63
2023/01/06 01:49:00;;;;;;;;;;;;;;;4.86;72.88;101627.13;4113048;28;20032;-62
2023/01/06 01:51:02;;;;;;;;;;;;;;;4.85;72.88;101628.06;4118613;28;20009;-62
2023/01/06 01:53:05;;;;;;;;;;;;;;;4.82;72.56;101626.47;4113180;28;20013;-63
2023/01/06 01:55:08;;;;;;;;;;;;;;;4.83;72.98;101632.69;4127054;28;20416;-63
2023/01/06 01:57:11;;;;;;;;;;;;;;;4.85;73.02;101622.72;4112381;28;20009;-64
2023/01/06 01:59:14;;;;;;;;;;;;;;;4.87;72.83;101631.47;4126839;28;20032;-60
2023/01/06 02:01:17;;;;;;;;;;;;;;;4.86;72.68;101619.09;4110610;28;20024;-59
2023/01/06 02:03:19;;;;;;;;;;;;;;;4.88;72.68;101614.44;4112330;28;20013;-63
2023/01/06 02:05:22;;;;;;;;;;;;;;;4.89;72.80;101613.50;4115578;28;20349;-60
2023/01/06 02:07:24;;;;;;;;;;;;;;;4.87;72.58;101610.94;4116374;28;20032;-63
2023/01/06 02:09:27;;;;;;;;;;;;;;;4.87;72.68;101602.91;4118599;28;20005;-64
2023/01/06 02:11:31;;;;;;;;;;;;;;;4.88;72.98;101609.94;4112735;28;20424;-62
2023/01/06 02:13:33;;;;;;;;;;;;;;;4.88;72.68;101606.41;4125312;28;20024;-64
2023/01/06 02:15:35;;;;;;;;;;;;;;;4.87;72.37;101600.22;4113399;28;20459;-62
2023/01/06 02:17:45;;;;;;;;;;;;;;;4.87;72.57;101607.38;4116392;28;20467;-63
2023/01/06 02:20:03;;;;;;;;;;;;;;;4.88;72.99;101604.59;4116226;28;19988;-62
2023/01/06 02:22:11;;;;;;;;;;;;;;;4.90;72.73;101603.63;4113982;28;20419;-62
2023/01/06 02:24:28;;;;;;;;;;;;;;;4.90;73.03;101590.25;4109794;28;20025;-62
2023/01/06 02:26:48;;;;;;;;;;;;;;;4.94;72.93;101597.06;4117056;28;20024;-64
2023/01/06 02:29:02;;;;;;;;;;;;;;;4.96;73.14;101603.16;4112948;28;19964;-63
2023/01/06 02:31:25;;;;;;;;;;;;;;;4.96;72.87;101598.63;4113348;28;20024;-60
2023/01/06 02:33:28;;;;;;;;;;;;;;;4.98;73.16;101598.53;4109715;28;20013;-62
2023/01/06 02:35:39;;;;;;;;;;;;;;;4.99;72.82;101593.06;4117217;28;20379;-62
2023/01/06 02:37:45;;;;;;;;;;;;;;;4.99;72.76;101581.50;4114281;28;20005;-62
2023/01/06 02:39:49;;;;;;;;;;;;;;;4.97;72.84;101581.63;4129101;28;20012;-63
2023/01/06 02:41:53;;;;;;;;;;;;;;;4.98;72.81;101577.09;4115201;28;20371;-60
2023/01/06 02:43:58;;;;;;;;;;;;;;;4.98;73.01;101588.66;4115084;28;20016;-64
2023/01/06 02:46:03;;;;;;;;;;;;;;;4.95;72.88;101586.22;4124900;28;20018;-60
2023/01/06 02:48:07;;;;;;;;;;;;;;;4.94;72.96;101576.50;4115475;28;20048;-61
2023/01/06 02:50:12;;;;;;;;;;;;;;;4.95;72.98;101580.88;4114798;28;20008;-61
2023/01/06 02:52:15;;;;;;;;;;;;;;;4.96;72.88;101571.88;4130653;28;20028;-60
2023/01/06 02:54:23;;;;;;;;;;;;;;;4.98;72.76;101571.75;4115613;28;20016;-60
2023/01/06 02:56:26;;;;;;;;;;;;;;;4.99;72.78;101568.94;4131083;28;19928;-60
2023/01/06 02:58:33;;;;;;;;;;;;;;;4.99;72.66;101570.78;4114469;28;20013;-62
2023/01/06 03:00:39;;;;;;;;;;;;;;;5.00;72.64;101561.75;4115043;28;20012;-62
2023/01/06 03:02:42;;;;;;;;;;;;;;;5.01;72.91;101560.81;4113794;28;20029;-61
2023/01/06 03:04:51;;;;;;;;;;;;;;;5.02;72.71;101562.50;4120451;28;20448;-62
2023/01/06 03:06:55;;;;;;;;;;;;;;;5.04;72.69;101564.06;4114205;28;20013;-61
2023/01/06 03:08:58;;;;;;;;;;;;;;;5.07;72.92;101567.50;4130632;28;20008;-60
2023/01/06 03:11:00;;;;;;;;;;;;;;;5.08;72.98;101561.16;4115196;28;20032;-63
2023/01/06 03:13:05;;;;;;;;;;;;;;;5.08;73.01;101559.34;4113661;28;20026;-62
2023/01/06 03:15:09;;;;;;;;;;;;;;;5.09;72.92;101563.72;4130339;28;20044;-64
2023/01/06 03:17:11;;;;;;;;;;;;;;;5.08;72.59;101563.84;4117460;28;20017;-63
2023/01/06 03:19:15;;;;;;;;;;;;;;;5.09;72.64;101562.88;4115479;28;20344;-61
2023/01/06 03:21:18;;;;;;;;;;;;;;;5.07;72.83;101549.59;4116068;28;20018;-62
2023/01/06 03:23:21;;;;;;;;;;;;;;;5.08;72.80;101554.00;4114787;28;20364;-62
2023/01/06 03:25:24;;;;;;;;;;;;;;;5.09;72.20;101549.50;4114877;28;19964;-61
2023/01/06 03:27:26;;;;;;;;;;;;;;;5.07;72.61;101554.13;4113714;28;20027;-61
2023/01/06 03:29:28;;;;;;;;;;;;;;;5.04;72.49;101552.53;4130182;28;20603;-62
2023/01/06 03:31:32;;;;;;;;;;;;;;;5.01;72.64;101545.56;4096642;28;20025;-59
2023/01/06 03:33:35;;;;;;;;;;;;;;;5.03;72.88;101543.66;4104722;28;20008;-61
2023/01/06 03:35:41;;;;;;;;;;;;;;;5.04;73.24;101534.63;4116070;28;20020;-62
2023/01/06 03:37:47;;;;;;;;;;;;;;;5.04;73.15;101537.31;4110663;28;19922;-61
2023/01/06 03:39:53;;;;;;;;;;;;;;;5.05;73.41;101530.16;4130361;28;20017;-58
2023/01/06 03:44:18;;;;;;;;;;;;;;;5.07;73.13;101540.72;4113400;28;20451;-63
2023/01/06 03:46:22;;;;;;;;;;;;;;;5.07;72.97;101530.88;4128740;28;20032;-60
2023/01/06 03:48:27;;;;;;;;;;;;;;;5.07;73.23;101520.16;4113380;28;20008;-62
2023/01/06 03:50:31;;;;;;;;;;;;;;;5.08;73.48;101512.97;4130761;28;20402;-61
2023/01/06 03:52:33;;;;;;;;;;;;;;;5.08;73.46;101519.19;4117655;28;20045;-62
2023/01/06 03:54:37;;;;;;;;;;;;;;;5.08;73.44;101505.81;4113755;28;20119;-60
2023/01/06 03:56:41;;;;;;;;;;;;;;;5.08;73.64;101503.13;4111097;28;20020;-64
2023/01/06 03:58:44;;;;;;;;;;;;;;;5.11;73.80;101508.25;4113904;28;20021;-62
2023/01/06 04:00:46;;;;;;;;;;;;;;;5.13;73.56;101508.97;4127356;28;20017;-63
2023/01/06 04:02:50;;;;;;;;;;;;;;;5.12;73.79;101501.03;4113189;28;20673;-62
2023/01/06 04:05:05;;;;;;;;;;;;;;;5.13;73.44;101505.44;4118149;28;20426;-62
2023/01/06 04:07:07;;;;;;;;;;;;;;;5.13;73.68;101506.28;4114026;28;20005;-61
2023/01/06 04:09:14;;;;;;;;;;;;;;;5.14;74.00;101499.09;4120297;28;20016;-65
2023/01/06 04:13:36;;;;;;;;;;;;;;;5.13;74.02;101498.25;4126999;28;21609;-59
2023/01/06 04:15:38;;;;;;;;;;;;;;;5.15;74.25;101498.13;4108920;28;20016;-61
2023/01/06 04:17:42;;;;;;;;;;;;;;;5.16;73.99;101497.16;4122256;28;20012;-62
2023/01/06 04:19:47;;;;;;;;;;;;;;;5.17;73.86;101494.34;4113837;28;20311;-61
2023/01/06 04:21:49;;;;;;;;;;;;;;;5.19;73.88;101488.88;4097100;28;20090;-61
2023/01/06 04:23:52;;;;;;;;;;;;;;;5.16;73.94;101498.00;4125088;28;20380;-62
2023/01/06 04:25:54;;;;;;;;;;;;;;;5.15;73.90;101490.94;4116107;28;20020;-61
2023/01/06 04:28:11;;;;;;;;;;;;;;;5.14;74.14;101494.59;4114124;28;20048;-62
2023/01/06 04:30:14;;;;;;;;;;;;;;;5.15;74.26;101498.97;4114022;28;20010;-61
2023/01/06 04:32:17;;;;;;;;;;;;;;;5.15;74.13;101498.13;4112669;28;20009;-62
2023/01/06 04:34:20;;;;;;;;;;;;;;;5.15;74.39;101487.41;4129153;28;20016;-61
2023/01/06 04:36:23;;;;;;;;;;;;;;;5.16;74.27;101489.13;4129432;28;20038;-62
2023/01/06 04:38:28;;;;;;;;;;;;;;;5.16;74.44;101486.44;4122144;28;20016;-63
2023/01/06 04:40:30;;;;;;;;;;;;;;;5.16;74.65;101481.09;4112390;28;20053;-62
2023/01/06 04:43:02;;;;;;;;;;;;;;;5.17;74.40;101472.94;4116561;28;20356;-63
2023/01/06 04:44:54;;;;;;;;;;;;;;;5.17;74.70;101464.03;4114443;28;20367;-61
2023/01/06 04:46:57;;;;;;;;;;;;;;;5.17;74.66;101464.91;4113345;28;20348;-62
2023/01/06 04:48:59;;;;;;;;;;;;;;;5.19;74.64;101459.41;4113073;28;20029;-60
2023/01/06 04:51:01;;;;;;;;;;;;;;;5.19;74.99;101465.63;4114838;28;20020;-63
2023/01/06 04:53:03;;;;;;;;;;;;;;;5.19;74.92;101457.59;4112873;28;20013;-62
2023/01/06 04:55:06;;;;;;;;;;;;;;;5.19;75.07;101465.63;4114761;28;20045;-62
2023/01/06 04:57:08;;;;;;;;;;;;;;;5.18;75.07;101455.88;4111986;28;20009;-61
2023/01/06 04:59:09;;;;;;;;;;;;;;;5.20;74.85;101442.34;4109772;28;20451;-61
2023/01/06 05:01:12;;;;;;;;;;;;;;;5.19;75.12;101446.03;4113917;28;20436;-62
2023/01/06 05:03:17;;;;;;;;;;;;;;;5.19;75.26;101444.19;4111743;28;19960;-62
2023/01/06 05:05:19;;;;;;;;;;;;;;;5.20;75.15;101437.00;4113952;28;21992;-59
2023/01/06 05:07:21;;;;;;;;;;;;;;;5.21;75.25;101436.88;4114163;28;20441;-60
2023/01/06 05:09:23;;;;;;;;;;;;;;;5.23;75.47;101434.06;4114233;28;20029;-59
2023/01/06 05:11:25;;;;;;;;;;;;;;;5.22;75.53;101425.19;4113102;28;20016;-59
2023/01/06 05:13:27;;;;;;;;;;;;;;;5.23;75.51;101420.69;4112569;28;20024;-61
2023/01/06 05:15:29;;;;;;;;;;;;;;;5.24;75.50;101417.88;4113532;28;20030;-62
2023/01/06 05:17:31;;;;;;;;;;;;;;;5.24;75.62;101419.72;4113622;28;20451;-60
2023/01/06 05:19:35;;;;;;;;;;;;;;;5.24;75.52;101414.34;4114012;28;20021;-61
2023/01/06 05:21:37;;;;;;;;;;;;;;;5.23;75.65;101420.69;4112163;28;19933;-59
2023/01/06 05:23:39;;;;;;;;;;;;;;;5.22;76.01;101413.66;4112681;28;20001;-62
2023/01/06 05:25:41;;;;;;;;;;;;;;;5.22;76.07;101414.47;4107183;28;20444;-58
2023/01/06 05:27:43;;;;;;;;;;;;;;;5.22;76.17;101408.28;4125121;28;20004;-61
2023/01/06 05:29:45;;;;;;;;;;;;;;;5.22;76.25;101408.28;4113811;28;20012;-63
2023/01/06 05:31:48;;;;;;;;;;;;;;;5.21;76.70;101410.09;4113423;28;20020;-61
2023/01/06 05:33:50;;;;;;;;;;;;;;;5.21;76.92;101410.09;4109017;28;20013;-60
2023/01/06 05:35:58;;;;;;;;;;;;;;;5.21;77.02;101415.44;4113192;28;20041;-60
2023/01/06 05:38:00;;;;;;;;;;;;;;;5.22;77.16;101416.31;4113655;28;20353;-60
2023/01/06 05:40:02;;;;;;;;;;;;;;;5.23;77.59;101401.94;4112998;28;20013;-61
2023/01/06 05:42:04;;;;;;;;;;;;;;;5.26;77.53;101408.88;4112961;28;19994;-59
2023/01/06 05:44:06;;;;;;;;;;;;;;;5.24;77.93;101407.16;4114143;28;20463;-59
2023/01/06 05:46:09;;;;;;;;;;;;;;;5.26;78.09;101393.66;4114100;28;20365;-59
2023/01/06 05:48:10;;;;;;;;;;;;;;;5.27;78.12;101400.72;4112972;28;20017;-56
2023/01/06 05:50:12;;;;;;;;;;;;;;;5.28;78.46;101391.69;4116324;28;20569;-58
2023/01/06 05:52:18;;;;;;;;;;;;;;;5.31;78.57;101396.78;4113882;28;20036;-61
2023/01/06 05:54:20;;;;;;;;;;;;;;;5.30;78.94;101389.75;4115123;28;20033;-62
2023/01/06 05:56:22;;;;;;;;;;;;;;;5.29;79.13;101382.69;4113794;28;20022;-61
2023/01/06 05:58:24;;;;;;;;;;;;;;;5.29;79.01;101388.03;4112968;28;20024;-62
2023/01/06 06:00:26;;;;;;;;;;;;;;;5.30;79.40;101375.50;4121791;28;20487;-62
2023/01/06 06:02:28;;;;;;;;;;;;;;;5.30;79.65;101373.69;4112531;28;20455;-62
2023/01/06 06:04:30;;;;;;;;;;;;;;;5.30;79.64;101371.00;4117190;28;20020;-62
2023/01/06 06:06:32;;;;;;;;;;;;;;;5.31;79.81;101370.00;4114170;28;20017;-60
2023/01/06 06:08:36;;;;;;;;;;;;;;;5.30;79.86;101371.00;4111792;28;20610;-62
2023/01/06 06:10:38;;;;;;;;;;;;;;;5.30;80.39;101372.81;4108877;28;20487;-62
2023/01/06 06:12:43;;;;;;;;;;;;;;;5.29;80.56;101380.00;4113091;28;20021;-62
2023/01/06 06:14:46;;;;;;;;;;;;;;;5.33;80.64;101377.91;4112969;28;20428;-63
2023/01/06 06:16:48;;;;;;;;;;;;;;;5.34;80.65;101379.63;4112505;28;20452;-63
2023/01/06 06:18:50;;;;;;;;;;;;;;;5.32;80.79;101377.06;4111743;28;20020;-61
2023/01/06 06:20:53;;;;;;;;;;;;;;;5.33;81.16;101370.75;4111997;28;19958;-62
2023/01/06 06:22:56;;;;;;;;;;;;;;;5.34;81.08;101371.59;4111838;28;19926;-60
2023/01/06 06:24:59;;;;;;;;;;;;;;;5.35;80.94;101359.91;4109238;28;20431;-62
2023/01/06 06:27:01;;;;;;;;;;;;;;;5.35;81.17;101355.38;4110728;28;20463;-64
2023/01/06 06:29:07;;;;;;;;;;;;;;;5.37;81.27;101356.09;4111931;28;20017;-62
2023/01/06 06:31:10;;;;;;;;;;;;;;;5.36;81.10;101359.78;4111256;28;20010;-63
2023/01/06 06:33:12;;;;;;;;;;;;;;;5.37;81.36;101352.59;4107140;28;20017;-62
2023/01/06 06:35:17;;;;;;;;;;;;;;;5.37;81.40;101353.44;4112171;28;20270;-62
2023/01/06 06:37:19;;;;;;;;;;;;;;;5.37;81.61;101349.91;4112145;28;20017;-63
2023/01/06 06:39:21;;;;;;;;;;;;;;;5.37;81.87;101348.06;4113243;28;20017;-60
2023/01/06 06:41:24;;;;;;;;;;;;;;;5.37;82.12;101356.09;4112407;28;20024;-61
2023/01/06 06:43:27;;;;;;;;;;;;;;;5.37;82.29;101353.44;4112735;28;19930;-61
2023/01/06 06:45:28;;;;;;;;;;;;;;;5.40;82.75;101357.69;4112799;28;20008;-62
2023/01/06 06:47:30;;;;;;;;;;;;;;;5.41;82.77;101354.88;4114330;28;20356;-63
2023/01/06 06:49:32;;;;;;;;;;;;;;;5.43;83.00;101345.88;4116258;28;20004;-62
2023/01/06 06:51:34;;;;;;;;;;;;;;;5.42;83.18;101342.31;4115967;28;20429;-64
2023/01/06 06:53:37;;;;;;;;;;;;;;;5.41;83.46;101335.28;4116193;28;20013;-64
2023/01/06 06:55:39;;;;;;;;;;;;;;;5.43;84.11;101332.47;4116274;28;20012;-63
2023/01/06 06:57:42;;;;;;;;;;;;;;;5.43;84.18;101327.97;4113836;28;20470;-63
2023/01/06 06:59:44;;;;;;;;;;;;;;;5.43;84.88;101325.28;4115135;28;20013;-60
2023/01/06 07:01:46;;;;;;;;;;;;;;;5.42;85.19;101328.94;4114898;28;20028;-61
2023/01/06 07:03:49;;;;;;;;;;;;;;;5.41;85.52;101320.06;4115154;28;20460;-61
2023/01/06 07:05:52;;;;;;;;;;;;;;;5.41;85.47;101321.91;4115473;28;20479;-59
2023/01/06 07:07:54;;;;;;;;;;;;;;;5.41;86.03;101325.41;4112399;28;20017;-62
2023/01/06 07:09:56;;;;;;;;;;;;;;;5.41;85.94;101325.41;4116340;28;20550;-61
2023/01/06 07:11:58;;;;;;;;;;;;;;;5.41;86.09;101324.56;4112791;28;20016;-61
2023/01/06 07:14:01;;;;;;;;;;;;;;;5.42;86.60;101323.56;4112419;28;20033;-62
2023/01/06 07:16:03;;;;;;;;;;;;;;;5.39;86.87;101321.16;4113989;28;20028;-64
2023/01/06 07:18:06;;;;;;;;;;;;;;;5.40;86.91;101314.81;4113876;28;20028;-62
2023/01/06 07:20:08;;;;;;;;;;;;;;;5.37;87.19;101318.59;4115522;28;20025;-63
2023/01/06 07:22:10;;;;;;;;;;;;;;;5.38;87.58;101323.00;4114328;28;20005;-62
2023/01/06 07:24:12;;;;;;;;;;;;;;;5.39;87.78;101319.34;4115377;28;19938;-63
2023/01/06 07:26:15;;;;;;;;;;;;;;;5.40;87.94;101321.03;4115670;28;20029;-61
2023/01/06 07:28:17;;;;;;;;;;;;;;;5.40;88.13;101321.03;4114629;28;20009;-62
2023/01/06 07:30:20;;;;;;;;;;;;;;;5.43;88.13;101316.41;4115828;28;20367;-61
2023/01/06 07:32:22;;;;;;;;;;;;;;;5.43;88.01;101319.94;4115013;28;20531;-61
2023/01/06 07:34:24;;;;;;;;;;;;;;;5.44;88.21;101320.75;4114487;28;20016;-59
2023/01/06 07:36:26;;;;;;;;;;;;;;;5.43;88.02;101327.97;4115279;28;20009;-62
2023/01/06 07:38:28;;;;;;;;;;;;;;;5.41;88.49;101333.44;4114288;28;20006;-62
2023/01/06 07:40:30;;;;;;;;;;;;;;;5.42;88.53;101339.66;4115794;28;20392;-63
2023/01/06 07:42:32;;;;;;;;;;;;;;;5.41;88.65;101337.97;4113864;28;20448;-63
2023/01/06 07:44:34;;;;;;;;;;;;;;;5.43;88.77;101335.16;4114183;28;20006;-61
2023/01/06 07:46:37;;;;;;;;;;;;;;;5.43;89.12;101336.00;4114634;28;20029;-61
2023/01/06 07:48:39;;;;;;;;;;;;;;;5.42;88.96;101323.56;4115255;28;20053;-61
2023/01/06 07:50:41;;;;;;;;;;;;;;;5.41;89.19;101329.94;4113985;28;20470;-61
2023/01/06 07:52:43;;;;;;;;;;;;;;;5.40;89.38;101314.81;4114309;28;20021;-60
2023/01/06 07:54:45;;;;;;;;;;;;;;;5.41;89.57;101313.84;4115157;28;20452;-60
2023/01/06 07:56:48;;;;;;;;;;;;;;;5.43;89.60;101316.41;4113639;28;20344;-62
2023/01/06 07:58:50;;;;;;;;;;;;;;;5.43;89.81;101316.41;4115034;28;20041;-59
2023/01/06 08:00:52;;;;;;;;;;;;;;;5.42;89.92;101318.22;4114991;28;20022;-62
2023/01/06 08:02:55;;;;;;;;;;;;;;;5.45;90.27;101326.00;4114191;28;20018;-61
2023/01/06 08:04:57;;;;;;;;;;;;;;;5.46;90.08;101322.34;4115149;28;19976;-61
2023/01/06 08:06:59;;;;;;;;;;;;;;;5.49;90.11;101329.28;4114604;28;20432;-59
2023/01/06 08:09:01;;;;;;;;;;;;;;;5.50;90.12;101329.16;4114900;28;20013;-62
2023/01/06 08:11:04;;;;;;;;;;;;;;;5.50;90.14;101330.97;4115199;28;20028;-63
2023/01/06 08:13:06;;;;;;;;;;;;;;;5.49;90.28;101323.94;4113492;28;20016;-62
2023/01/06 08:15:08;;;;;;;;;;;;;;;5.47;90.49;101321.38;4112812;28;20040;-62
2023/01/06 08:17:10;;;;;;;;;;;;;;;5.48;90.81;101311.50;4112254;28;20389;-63
2023/01/06 08:19:13;;;;;;;;;;;;;;;5.50;90.76;101293.47;4114698;28;20012;-59
2023/01/06 08:21:15;;;;;;;;;;;;;;;5.53;90.77;101293.19;4114806;28;20475;-62
2023/01/06 08:23:17;;;;;;;;;;;;;;;5.51;91.13;101304.03;4113702;28;20020;-64
2023/01/06 08:25:19;;;;;;;;;;;;;;;5.53;90.94;101301.22;4114024;28;19973;-66
2023/01/06 08:27:21;;;;;;;;;;;;;;;5.54;91.21;101293.06;4114147;28;20005;-64
2023/01/06 08:29:23;;;;;;;;;;;;;;;5.54;91.37;101297.59;4113093;28;19949;-63
2023/01/06 08:31:25;;;;;;;;;;;;;;;5.55;91.49;101302.81;4113981;28;20008;-61
2023/01/06 08:33:27;;;;;;;;;;;;;;;5.58;91.76;101313.28;4112503;28;20005;-62
2023/01/06 08:35:31;;;;;;;;;;;;;;;5.60;91.66;101305.09;4114806;28;20476;-62
2023/01/06 08:37:33;;;;;;;;;;;;;;;5.61;91.68;101293.38;4113260;28;20005;-61
2023/01/06 08:39:35;;;;;;;;;;;;;;;5.60;91.88;101284.50;4114027;28;20392;-62
2023/01/06 08:41:37;;;;;;;;;;;;;;;5.63;91.73;101278.03;4113920;28;20541;-61
2023/01/06 08:43:39;;;;;;;;;;;;;;;5.63;91.88;101278.03;4113561;28;20452;-61
2023/01/06 08:45:41;;;;;;;;;;;;;;;5.66;91.67;101283.16;4114150;28;20501;-61
2023/01/06 08:47:43;;;;;;;;;;;;;;;5.66;91.82;101275.09;4113005;28;20382;-59
2023/01/06 08:49:45;;;;;;;;;;;;;;;5.67;91.89;101292.03;4114025;28;20009;-62
2023/01/06 08:51:48;;;;;;;;;;;;;;;5.68;92.19;101288.38;4111315;28;20004;-62
2023/01/06 08:53:50;;;;;;;;;;;;;;;5.70;92.60;101295.28;4114289;28;20013;-63
2023/01/06 08:55:52;;;;;;;;;;;;;;;5.71;92.39;101285.44;4113958;28;20020;-61
2023/01/06 08:57:56;;;;;;;;;;;;;;;5.71;92.64;101269.34;4113895;28;20107;-62
2023/01/06 08:59:58;;;;;;;;;;;;;;;5.75;92.75;101265.41;4111529;28;20004;-62
2023/01/06 09:02:00;;;;;;;;;;;;;;;5.75;92.84;101262.72;4111643;28;20016;-62
2023/01/06 09:04:04;;;;;;;;;;;;;;;5.73;93.15;101244.09;4113889;28;20009;-64
2023/01/06 09:06:06;;;;;;;;;;;;;;;5.76;93.09;101249.19;4112913;28;20352;-62
2023/01/06 09:08:09;;;;;;;;;;;;;;;5.78;93.25;101238.34;4112213;28;20367;-61
2023/01/06 09:10:11;;;;;;;;;;;;;;;5.80;93.12;101233.72;4113860;28;20012;-62
2023/01/06 09:12:13;;;;;;;;;;;;;;;5.82;93.50;101238.94;4113320;28;20013;-61
2023/01/06 09:14:15;;;;;;;;;;;;;;;5.82;93.67;101247.81;4112890;28;20364;-62
2023/01/06 09:16:17;;;;;;;;;;;;;;;5.86;93.60;101264.47;4113491;28;19953;-62
2023/01/06 09:18:19;;;;;;;;;;;;;;;5.88;93.91;101266.06;4112575;28;20468;-61
2023/01/06 09:20:21;;;;;;;;;;;;;;;5.91;94.00;101260.41;4112828;28;20025;-61
2023/01/06 09:22:23;;;;;;;;;;;;;;;5.92;94.11;101267.50;4110288;28;20024;-62
2023/01/06 09:24:27;;;;;;;;;;;;;;;5.95;93.84;101264.50;4113646;28;20606;-62
2023/01/06 09:26:29;;;;;;;;;;;;;;;5.98;94.10;101274.16;4113967;28;19930;-62
2023/01/06 09:28:31;;;;;;;;;;;;;;;5.99;94.37;101275.88;4111835;28;20012;-62
2023/01/06 09:30:33;;;;;;;;;;;;;;;6.01;94.14;101278.41;4113317;28;20017;-62
2023/01/06 09:32:35;;;;;;;;;;;;;;;6.02;94.56;101272.06;4112882;28;20029;-63
2023/01/06 09:34:37;;;;;;;;;;;;;;;6.04;94.51;101262.91;4112217;28;20016;-62
2023/01/06 09:36:39;;;;;;;;;;;;;;;6.06;94.52;101247.53;4111646;28;20028;-63
2023/01/06 09:38:41;;;;;;;;;;;;;;;6.08;94.64;101242.91;4113252;28;20013;-62
2023/01/06 09:40:49;;;;;;;;;;;;;;;6.10;94.68;101238.22;4113705;28;20886;-63
2023/01/06 09:42:54;;;;;;;;;;;;;;;6.12;94.74;101244.28;4113067;28;20021;-61
2023/01/06 09:44:56;;;;;;;;;;;;;;;6.15;94.74;101248.56;4111490;28;20029;-62
2023/01/06 09:46:59;;;;;;;;;;;;;;;6.17;95.06;101232.31;4112398;28;19922;-62
2023/01/06 09:49:01;;;;;;;;;;;;;;;6.17;95.20;101232.31;4113735;28;20013;-62
2023/01/06 09:51:04;;;;;;;;;;;;;;;6.18;94.97;101226.00;4112463;28;20322;-64
2023/01/06 09:53:06;;;;;;;;;;;;;;;6.20;95.05;101224.00;4112433;28;20025;-61
2023/01/06 09:55:11;;;;;;;;;;;;;;;6.22;95.11;101220.22;4112951;28;20452;-61
2023/01/06 09:57:15;;;;;;;;;;;;;;;6.27;95.31;101217.09;4112226;28;20439;-64
2023/01/06 09:59:18;;;;;;;;;;;;;;;6.29;95.53;101215.97;4113638;28;20021;-60
2023/01/06 10:01:22;;;;;;;;;;;;;;;6.31;95.20;101223.88;4113353;28;20013;-62
2023/01/06 10:03:25;;;;;;;;;;;;;;;6.32;95.12;101214.88;4112341;28;20016;-62
2023/01/06 10:05:28;;;;;;;;;;;;;;;6.34;95.40;101209.38;4113253;28;20455;-62
2023/01/06 10:07:32;;;;;;;;;;;;;;;6.35;95.05;101190.44;4111712;28;19926;-60
2023/01/06 10:09:36;;;;;;;;;;;;;;;6.37;95.27;101195.69;4113654;28;20464;-63
2023/01/06 10:11:41;;;;;;;;;;;;;;;6.38;95.05;101190.16;4111802;28;20020;-61
2023/01/06 10:13:47;;;;;;;;;;;;;;;6.40;95.33;101188.19;4112237;28;20018;-61
2023/01/06 10:15:51;;;;;;;;;;;;;;;6.42;95.16;101183.53;4112591;28;20356;-59
2023/01/06 10:17:56;;;;;;;;;;;;;;;6.44;95.15;101169.97;4112812;28;20574;-60
2023/01/06 10:20:01;;;;;;;;;;;;;;;6.42;95.06;101167.41;4113579;28;20357;-64
2023/01/06 10:22:04;;;;;;;;;;;;;;;6.47;94.83;101169.69;4114576;28;20426;-63
2023/01/06 10:24:15;;;;;;;;;;;;;;;6.47;94.58;101165.19;4116458;28;20018;-61
2023/01/06 10:26:20;;;;;;;;;;;;;;;6.50;94.18;101166.72;4130468;28;20016;-61
2023/01/06 10:28:24;;;;;;;;;;;;;;;6.51;94.00;101160.38;4115070;28;19922;-61
2023/01/06 10:30:27;;;;;;;;;;;;;;;6.55;93.36;101172.53;4115679;28;20016;-61
2023/01/06 10:32:31;;;;;;;;;;;;;;;6.57;93.02;101154.44;4115391;28;20428;-61
2023/01/06 10:34:34;;;;;;;;;;;;;;;6.60;93.13;101147.94;4115392;28;20036;-62
2023/01/06 10:36:38;;;;;;;;;;;;;;;6.64;93.27;101154.72;4128842;28;20017;-63
2023/01/06 10:38:41;;;;;;;;;;;;;;;6.66;93.29;101147.38;4114565;28;20012;-60
2023/01/06 10:40:42;;;;;;;;;;;;;;;6.68;93.48;101150.78;4115952;28;20013;-63
2023/01/06 10:42:58;;;;;;;;;;;;;;;6.71;93.47;101136.22;4114812;28;20017;-59
2023/01/06 10:45:00;;;;;;;;;;;;;;;6.72;93.16;101138.75;4115703;28;20094;-61
2023/01/06 10:47:04;;;;;;;;;;;;;;;6.76;93.42;101120.56;4115692;28;20016;-63
2023/01/06 10:49:09;;;;;;;;;;;;;;;6.76;92.81;101117.88;4116425;28;20484;-63